createdAt,value
2018-06-29T00:00:15.794Z,74.19
2018-06-29T00:02:44.358Z,72.28
2018-06-29T00:05:12.876Z,72.42
2018-06-29T00:07:41.471Z,73.25
2018-06-29T00:10:10.193Z,71.24
2018-06-29T00:12:38.731Z,70.50
2018-06-29T00:15:07.276Z,70.45
2018-06-29T00:17:35.825Z,69.98
2018-06-29T00:20:05.004Z,70.54
2018-06-29T00:22:33.536Z,69.18
2018-06-29T00:25:02.045Z,69.00
2018-06-29T00:27:30.644Z,68.10
2018-06-29T00:29:59.153Z,69.16
2018-06-29T00:32:27.692Z,70.89
2018-06-29T00:34:56.201Z,72.05
2018-06-29T00:37:24.852Z,72.03
2018-06-29T00:39:53.372Z,71.54
2018-06-29T00:42:21.989Z,72.66
2018-06-29T00:44:50.536Z,71.99
2018-06-29T00:47:19.096Z,72.76
2018-06-29T00:49:47.648Z,73.14
2018-06-29T00:52:19.125Z,73.46
2018-06-29T00:54:47.660Z,73.34
2018-06-29T00:57:16.196Z,72.91
2018-06-29T00:59:44.735Z,72.56
2018-06-29T01:02:13.256Z,72.82
2018-06-29T01:04:41.795Z,70.92
2018-06-29T01:07:10.356Z,70.85
2018-06-29T01:09:38.889Z,73.42
2018-06-29T01:12:07.464Z,72.41
2018-06-29T01:14:36.018Z,72.46
2018-06-29T01:17:05.137Z,73.40
2018-06-29T01:19:33.681Z,72.59
2018-06-29T01:22:02.224Z,73.49
2018-06-29T01:24:30.880Z,73.46
2018-06-29T01:27:00.021Z,73.52
2018-06-29T01:29:28.561Z,75.05
2018-06-29T01:31:57.072Z,76.18
2018-06-29T01:34:25.625Z,74.02
2018-06-29T01:36:54.136Z,73.48
2018-06-29T01:39:22.672Z,74.00
2018-06-29T01:41:51.252Z,74.17
2018-06-29T01:44:19.781Z,74.03
2018-06-29T01:46:48.300Z,75.00
2018-06-29T01:49:16.863Z,76.37
2018-06-29T01:51:45.373Z,74.79
2018-06-29T01:54:14.192Z,74.24
2018-06-29T01:56:42.724Z,73.89
2018-06-29T01:59:11.269Z,73.97
2018-06-29T02:01:40.018Z,74.61
2018-06-29T02:04:08.719Z,74.92
2018-06-29T02:06:37.389Z,73.85
2018-06-29T02:09:08.592Z,72.43
2018-06-29T02:11:37.171Z,72.32
2018-06-29T02:14:06.377Z,72.66
2018-06-29T02:16:35.270Z,71.98
2018-06-29T02:19:04.244Z,72.45
2018-06-29T02:21:33.004Z,71.69
2018-06-29T02:24:01.565Z,71.50
2018-06-29T02:26:30.263Z,73.94
2018-06-29T02:28:58.828Z,73.00
2018-06-29T02:31:27.381Z,74.48
2018-06-29T02:33:55.931Z,74.34
2018-06-29T02:36:24.453Z,75.05
2018-06-29T02:38:52.984Z,74.05
2018-06-29T02:41:21.541Z,76.44
2018-06-29T02:43:50.076Z,74.44
2018-06-29T02:46:18.620Z,76.43
2018-06-29T02:48:47.124Z,76.40
2018-06-29T02:51:15.673Z,75.38
2018-06-29T02:53:44.240Z,76.79
2018-06-29T02:56:12.824Z,77.79
2018-06-29T02:58:41.346Z,79.10
2018-06-29T03:01:09.954Z,78.23
2018-06-29T03:03:38.460Z,78.53
2018-06-29T03:06:07.024Z,77.70
2018-06-29T03:08:35.569Z,77.38
2018-06-29T03:11:04.128Z,78.20
2018-06-29T03:13:32.638Z,78.42
2018-06-29T03:16:01.183Z,76.73
2018-06-29T03:18:29.717Z,77.29
2018-06-29T03:20:58.600Z,76.84
2018-06-29T03:23:27.113Z,75.77
2018-06-29T03:25:55.664Z,75.28
2018-06-29T03:28:24.185Z,76.44
2018-06-29T03:30:52.736Z,77.65
2018-06-29T03:33:21.252Z,79.37
2018-06-29T03:35:49.788Z,81.39
2018-06-29T03:38:18.308Z,79.84
2018-06-29T03:40:46.877Z,78.36
2018-06-29T03:43:15.440Z,78.79
2018-06-29T03:45:44.096Z,77.33
2018-06-29T03:48:12.620Z,76.58
2018-06-29T03:50:41.221Z,77.13
2018-06-29T03:53:09.732Z,75.73
2018-06-29T03:55:38.288Z,75.80
2018-06-29T03:58:06.849Z,73.90
2018-06-29T04:00:35.816Z,72.72
2018-06-29T04:03:04.332Z,72.16
2018-06-29T04:05:32.896Z,72.63
2018-06-29T04:08:01.445Z,72.90
2018-06-29T04:10:30.017Z,72.75
2018-06-29T04:12:58.540Z,73.27
2018-06-29T04:15:27.172Z,74.82
2018-06-29T04:17:55.676Z,75.34
2018-06-29T04:20:24.225Z,75.61
2018-06-29T04:22:53.120Z,74.94
2018-06-29T04:25:21.661Z,76.05
2018-06-29T04:27:50.248Z,76.25
2018-06-29T04:30:18.782Z,76.73
2018-06-29T04:32:47.442Z,75.85
2018-06-29T04:35:15.928Z,75.43
2018-06-29T04:37:44.483Z,76.27
2018-06-29T04:40:13.023Z,75.41
2018-06-29T04:42:41.557Z,75.14
2018-06-29T04:45:10.056Z,75.92
2018-06-29T04:47:38.609Z,76.55
2018-06-29T04:50:07.132Z,76.66
2018-06-29T04:52:35.953Z,76.19
2018-06-29T04:55:06.725Z,76.27
2018-06-29T04:57:36.001Z,75.55
2018-06-29T05:00:05.013Z,75.02
2018-06-29T05:02:33.633Z,73.86
2018-06-29T05:05:02.177Z,74.80
2018-06-29T05:07:30.777Z,73.20
2018-06-29T05:09:59.356Z,72.37
2018-06-29T05:12:27.932Z,71.57
2018-06-29T05:14:56.468Z,70.75
2018-06-29T05:17:25.050Z,70.99
2018-06-29T05:19:53.581Z,69.22
2018-06-29T05:22:22.137Z,67.93
2018-06-29T05:24:50.657Z,66.38
2018-06-29T05:27:19.249Z,65.53
2018-06-29T05:29:48.220Z,65.11
2018-06-29T05:32:17.205Z,65.14
2018-06-29T05:34:45.749Z,64.62
2018-06-29T05:37:14.292Z,63.68
2018-06-29T05:39:42.793Z,63.78
2018-06-29T05:42:11.336Z,62.78
2018-06-29T05:44:39.860Z,63.38
2018-06-29T05:47:08.485Z,62.51
2018-06-29T05:49:37.008Z,63.04
2018-06-29T05:52:11.772Z,63.76
2018-06-29T05:54:40.526Z,62.52
2018-06-29T05:57:09.073Z,62.46
2018-06-29T05:59:39.929Z,61.22
2018-06-29T06:02:10.836Z,61.51
2018-06-29T06:04:39.644Z,62.31
2018-06-29T06:07:08.246Z,61.35
2018-06-29T06:09:36.752Z,60.71
2018-06-29T06:12:05.406Z,60.59
2018-06-29T06:14:33.965Z,60.66
2018-06-29T06:17:02.518Z,60.97
2018-06-29T06:19:42.361Z,61.83
2018-06-29T06:22:10.909Z,59.72
2018-06-29T06:24:39.457Z,60.54
2018-06-29T06:27:08.253Z,62.17
2018-06-29T06:29:36.816Z,60.23
2018-06-29T06:32:05.376Z,58.91
2018-06-29T06:34:33.891Z,59.73
2018-06-29T06:37:02.461Z,58.30
2018-06-29T06:39:30.991Z,58.73
2018-06-29T06:41:59.520Z,57.84
2018-06-29T06:44:28.062Z,58.22
2018-06-29T06:46:56.587Z,57.09
2018-06-29T06:49:25.154Z,57.27
2018-06-29T06:51:53.691Z,58.91
2018-06-29T06:54:22.241Z,58.33
2018-06-29T06:56:50.852Z,58.49
2018-06-29T06:59:19.702Z,57.80
2018-06-29T07:01:48.452Z,58.45
2018-06-29T07:04:17.415Z,57.83
2018-06-29T07:06:46.063Z,57.06
2018-06-29T07:09:14.774Z,56.23
2018-06-29T07:11:43.298Z,55.84
2018-06-29T07:14:11.852Z,55.54
2018-06-29T07:16:40.393Z,54.70
2018-06-29T07:19:08.972Z,55.58
2018-06-29T07:21:37.640Z,55.82
2018-06-29T07:24:07.121Z,56.69
2018-06-29T07:26:36.713Z,54.85
2018-06-29T07:29:05.345Z,53.86
2018-06-29T07:31:34.802Z,54.39
2018-06-29T07:34:08.038Z,55.45
2018-06-29T07:36:40.528Z,55.35
2018-06-29T07:39:12.357Z,55.85
2018-06-29T07:41:42.391Z,56.14
2018-06-29T07:44:15.168Z,54.80
2018-06-29T07:46:46.108Z,54.51
2018-06-29T07:49:17.682Z,55.58
2018-06-29T07:51:46.892Z,55.26
2018-06-29T07:54:17.449Z,54.57
2018-06-29T07:56:51.793Z,54.88
2018-06-29T07:59:22.572Z,56.15
2018-06-29T08:01:53.778Z,53.71
2018-06-29T08:04:28.137Z,53.95
2018-06-29T08:06:59.774Z,56.10
2018-06-29T08:09:37.144Z,54.54
2018-06-29T08:12:06.291Z,53.36
2018-06-29T08:14:36.850Z,52.39
2018-06-29T08:17:06.953Z,53.68
2018-06-29T08:19:36.809Z,52.35
2018-06-29T08:22:10.306Z,53.47
2018-06-29T08:24:51.404Z,53.09
2018-06-29T08:27:21.403Z,52.43
2018-06-29T08:29:52.850Z,52.04
2018-06-29T08:32:22.909Z,50.56
2018-06-29T08:34:52.679Z,50.86
2018-06-29T08:37:21.787Z,50.60
2018-06-29T08:39:52.776Z,51.26
2018-06-29T08:42:23.251Z,51.01
2018-06-29T08:44:53.441Z,49.77
2018-06-29T08:47:29.040Z,50.28
2018-06-29T08:50:09.026Z,51.12
2018-06-29T08:52:45.859Z,50.52
2018-06-29T08:55:24.684Z,49.75
2018-06-29T08:58:00.987Z,50.00
2018-06-29T09:00:42.805Z,49.34
2018-06-29T09:03:19.260Z,48.21
2018-06-29T09:06:01.885Z,47.87
2018-06-29T09:08:48.069Z,48.50
2018-06-29T09:11:27.737Z,48.72
2018-06-29T09:14:03.653Z,48.95
2018-06-29T09:16:39.808Z,48.18
2018-06-29T09:19:17.809Z,46.92
2018-06-29T09:21:57.714Z,48.10
2018-06-29T09:24:42.007Z,48.01
2018-06-29T09:27:18.006Z,47.59
2018-06-29T09:29:54.917Z,45.93
2018-06-29T09:32:35.425Z,47.00
2018-06-29T09:35:12.237Z,46.71
2018-06-29T09:37:47.481Z,45.31
2018-06-29T09:40:23.922Z,46.35
2018-06-29T09:43:01.767Z,45.45
2018-06-29T09:45:45.050Z,46.90
2018-06-29T09:48:24.714Z,47.01
2018-06-29T09:51:01.893Z,45.93
2018-06-29T09:53:42.762Z,44.33
2018-06-29T09:56:22.647Z,45.19
2018-06-29T09:59:01.672Z,44.92
2018-06-29T10:01:37.653Z,44.54
2018-06-29T10:04:10.024Z,43.91
2018-06-29T10:06:40.408Z,44.24
2018-06-29T10:09:11.085Z,45.08
2018-06-29T10:11:41.488Z,46.90
2018-06-29T10:14:12.642Z,44.31
2018-06-29T10:16:41.169Z,43.92
2018-06-29T10:19:12.035Z,42.39
2018-06-29T10:21:40.649Z,43.50
2018-06-29T10:24:09.200Z,43.23
2018-06-29T10:26:39.647Z,43.29
2018-06-29T10:29:09.220Z,44.10
2018-06-29T10:31:38.861Z,44.27
2018-06-29T10:34:10.223Z,42.49
2018-06-29T10:36:39.934Z,43.17
2018-06-29T10:39:13.217Z,43.38
2018-06-29T10:41:43.340Z,44.55
2018-06-29T10:44:14.105Z,42.89
2018-06-29T10:46:50.030Z,44.33
2018-06-29T10:49:21.022Z,42.50
2018-06-29T10:51:53.844Z,44.21
2018-06-29T10:54:23.102Z,42.73
2018-06-29T10:56:57.058Z,43.73
2018-06-29T10:59:27.961Z,42.52
2018-06-29T11:02:02.197Z,42.44
2018-06-29T11:04:32.644Z,43.31
2018-06-29T11:07:03.102Z,43.21
2018-06-29T11:09:32.874Z,46.16
2018-06-29T11:12:05.015Z,42.34
2018-06-29T11:14:33.680Z,43.60
2018-06-29T11:17:02.248Z,43.42
2018-06-29T11:19:30.800Z,42.52
2018-06-29T11:21:59.714Z,42.28
2018-06-29T11:24:32.369Z,42.42
2018-06-29T11:27:06.374Z,42.54
2018-06-29T11:29:36.811Z,42.37
2018-06-29T11:32:05.352Z,41.74
2018-06-29T11:34:35.061Z,40.41
2018-06-29T11:37:03.752Z,41.91
2018-06-29T11:39:32.844Z,41.76
2018-06-29T11:42:01.397Z,42.54
2018-06-29T11:44:29.912Z,42.93
2018-06-29T11:46:59.817Z,40.80
2018-06-29T11:49:28.479Z,39.59
2018-06-29T11:51:57.037Z,40.95
2018-06-29T11:54:25.559Z,42.09
2018-06-29T11:56:54.119Z,41.65
2018-06-29T11:59:22.633Z,41.50
2018-06-29T12:01:51.193Z,41.37
2018-06-29T12:04:19.724Z,40.93
2018-06-29T12:06:48.300Z,40.13
2018-06-29T12:09:16.819Z,40.98
2018-06-29T12:11:45.333Z,40.21
2018-06-29T12:14:13.876Z,41.11
2018-06-29T12:16:42.464Z,40.95
2018-06-29T12:19:11.069Z,41.77
2018-06-29T12:21:39.600Z,40.79
2018-06-29T12:24:12.664Z,38.96
2018-06-29T12:26:41.255Z,41.00
2018-06-29T12:29:09.840Z,38.81
2018-06-29T12:31:38.405Z,39.38
2018-06-29T12:34:06.988Z,39.66
2018-06-29T12:36:35.506Z,39.73
2018-06-29T12:39:11.952Z,39.61
2018-06-29T12:41:40.729Z,40.01
2018-06-29T12:44:09.352Z,41.21
2018-06-29T12:46:38.412Z,41.26
2018-06-29T12:49:07.003Z,39.06
2018-06-29T12:51:35.611Z,39.49
2018-06-29T12:54:04.156Z,40.15
2018-06-29T12:56:32.668Z,40.01
2018-06-29T12:59:01.577Z,38.86
2018-06-29T13:01:30.101Z,39.33
2018-06-29T13:03:58.661Z,39.23
2018-06-29T13:06:27.316Z,38.62
2018-06-29T13:08:55.892Z,39.39
2018-06-29T13:11:24.460Z,40.41
2018-06-29T13:13:53.244Z,41.28
2018-06-29T13:16:22.523Z,39.14
2018-06-29T13:18:57.285Z,40.61
2018-06-29T13:21:30.468Z,38.83
2018-06-29T13:23:59.264Z,39.50
2018-06-29T13:26:27.797Z,39.11
2018-06-29T13:28:56.344Z,40.08
2018-06-29T13:31:24.868Z,40.54
2018-06-29T13:33:53.495Z,40.54
2018-06-29T13:36:21.969Z,40.85
2018-06-29T13:38:50.520Z,37.89
2018-06-29T13:41:19.062Z,38.09
2018-06-29T13:43:47.643Z,37.70
2018-06-29T13:46:16.158Z,37.05
2018-06-29T13:48:44.708Z,38.61
2018-06-29T13:51:13.272Z,36.24
2018-06-29T13:53:41.824Z,37.77
2018-06-29T13:56:10.361Z,40.16
2018-06-29T13:58:38.917Z,37.67
2018-06-29T14:01:07.439Z,38.68
2018-06-29T14:03:38.467Z,38.20
2018-06-29T14:06:09.569Z,37.95
2018-06-29T14:08:43.866Z,40.92
2018-06-29T14:11:20.975Z,38.30
2018-06-29T14:13:56.132Z,36.78
2018-06-29T14:16:31.644Z,37.20
2018-06-29T14:19:09.774Z,37.65
2018-06-29T14:21:49.413Z,38.76
2018-06-29T14:24:29.173Z,38.93
2018-06-29T14:27:05.236Z,37.91
2018-06-29T14:29:40.466Z,37.93
2018-06-29T14:32:13.804Z,36.58
2018-06-29T14:34:50.352Z,36.86
2018-06-29T14:37:25.818Z,37.75
2018-06-29T14:40:03.940Z,36.21
2018-06-29T14:42:32.605Z,38.31
2018-06-29T14:45:01.181Z,35.86
2018-06-29T14:47:29.693Z,36.07
2018-06-29T14:49:58.263Z,37.67
2018-06-29T14:52:26.779Z,37.55
2018-06-29T14:54:55.353Z,36.15
2018-06-29T14:57:24.053Z,34.95
2018-06-29T14:59:52.601Z,35.81
2018-06-29T15:02:21.129Z,36.30
2018-06-29T15:04:49.677Z,35.79
2018-06-29T15:07:18.304Z,35.94
2018-06-29T15:09:46.853Z,37.75
2018-06-29T15:12:15.382Z,36.44
2018-06-29T15:14:43.949Z,35.11
2018-06-29T15:17:12.484Z,34.96
2018-06-29T15:19:41.061Z,34.90
2018-06-29T15:22:09.592Z,36.27
2018-06-29T15:24:39.089Z,35.77
2018-06-29T15:27:07.632Z,35.21
2018-06-29T15:29:36.191Z,34.96
2018-06-29T15:32:04.742Z,35.52
2018-06-29T15:34:33.267Z,37.93
2018-06-29T15:37:01.860Z,34.64
2018-06-29T15:39:30.388Z,35.07
2018-06-29T15:41:58.968Z,34.21
2018-06-29T15:44:27.520Z,34.35
2018-06-29T15:46:56.081Z,35.73
2018-06-29T15:49:24.604Z,36.04
2018-06-29T15:51:53.192Z,34.77
2018-06-29T15:54:21.717Z,34.72
2018-06-29T15:56:50.355Z,34.79
2018-06-29T15:59:18.980Z,34.46
2018-06-29T16:01:47.541Z,33.54
2018-06-29T16:04:16.074Z,33.79
2018-06-29T16:06:44.704Z,34.53
2018-06-29T16:09:13.220Z,34.30
2018-06-29T16:11:41.802Z,34.57
2018-06-29T16:14:10.328Z,34.50
2018-06-29T16:16:39.625Z,35.48
2018-06-29T16:19:09.292Z,34.65
2018-06-29T16:21:37.903Z,33.25
2018-06-29T16:24:06.637Z,34.26
2018-06-29T16:26:35.201Z,34.76
2018-06-29T16:29:04.064Z,34.97
2018-06-29T16:31:32.620Z,34.58
2018-06-29T16:34:01.225Z,36.23
2018-06-29T16:36:29.832Z,36.37
2018-06-29T16:38:58.367Z,34.85
2018-06-29T16:41:28.356Z,34.13
2018-06-29T16:43:57.017Z,35.39
2018-06-29T16:46:25.785Z,34.15
2018-06-29T16:48:54.476Z,24.89
2018-06-29T16:51:23.667Z,23.27
2018-06-29T16:53:52.285Z,22.44
2018-06-29T16:56:22.120Z,23.08
2018-06-29T16:58:50.778Z,23.43
2018-06-29T17:01:19.328Z,23.36
2018-06-29T17:03:48.995Z,21.61
2018-06-29T17:06:17.552Z,21.72
2018-06-29T17:08:46.355Z,22.83
2018-06-29T17:11:16.461Z,21.26
2018-06-29T17:13:45.007Z,19.75
2018-06-29T17:16:13.681Z,21.98
2018-06-29T17:18:42.491Z,22.98
2018-06-29T17:21:11.050Z,22.96
2018-06-29T17:23:39.629Z,19.99
2018-06-29T17:26:08.385Z,19.55
2018-06-29T17:28:37.118Z,21.51
2018-06-29T17:31:05.669Z,21.92
2018-06-29T17:33:34.308Z,21.95
2018-06-29T17:36:03.151Z,21.83
2018-06-29T17:38:31.805Z,19.57
2018-06-29T17:41:00.325Z,18.71
2018-06-29T17:43:28.886Z,21.01
2018-06-29T17:45:57.484Z,20.57
2018-06-29T17:48:26.412Z,20.58
2018-06-29T17:50:55.247Z,20.50
2018-06-29T17:53:24.573Z,21.94
2018-06-29T17:55:53.492Z,21.50
2018-06-29T17:58:22.116Z,24.35
2018-06-29T18:00:51.174Z,25.67
2018-06-29T18:03:19.720Z,26.78
2018-06-29T18:05:48.240Z,28.91
2018-06-29T18:08:16.874Z,28.11
2018-06-29T18:10:45.445Z,29.56
2018-06-29T18:13:14.023Z,30.84
2018-06-29T18:15:42.565Z,31.77
2018-06-29T18:18:11.175Z,30.22
2018-06-29T18:20:39.722Z,31.73
2018-06-29T18:23:08.297Z,29.90
2018-06-29T18:25:37.684Z,30.49
2018-06-29T18:28:06.433Z,32.85
2018-06-29T18:30:34.961Z,32.94
2018-06-29T18:33:03.619Z,33.86
2018-06-29T18:35:32.149Z,33.22
2018-06-29T18:38:01.099Z,34.96
2018-06-29T18:40:29.794Z,35.47
2018-06-29T18:42:58.497Z,36.01
2018-06-29T18:45:27.501Z,35.51
2018-06-29T18:47:56.104Z,36.82
2018-06-29T18:50:24.656Z,37.16
2018-06-29T18:52:53.195Z,36.65
2018-06-29T18:55:23.369Z,38.18
2018-06-29T18:57:52.006Z,39.13
2018-06-29T19:00:20.544Z,40.67
2018-06-29T19:02:50.032Z,43.93
2018-06-29T19:05:18.610Z,42.55
2018-06-29T19:07:48.432Z,42.57
2018-06-29T19:10:17.181Z,43.07
2018-06-29T19:12:45.750Z,45.35
2018-06-29T19:15:14.261Z,45.30
2018-06-29T19:17:45.330Z,45.41
2018-06-29T19:20:14.046Z,45.54
2018-06-29T19:22:45.220Z,47.25
2018-06-29T19:25:15.842Z,49.12
2018-06-29T19:27:46.048Z,48.80
2018-06-29T19:30:15.527Z,49.95
2018-06-29T19:32:45.824Z,48.87
2018-06-29T19:35:14.468Z,47.79
2018-06-29T19:37:45.655Z,49.93
2018-06-29T19:40:16.868Z,51.24
2018-06-29T19:42:45.473Z,52.38
2018-06-29T19:45:14.828Z,53.33
2018-06-29T19:47:44.350Z,52.95
2018-06-29T19:50:13.479Z,53.87
2018-06-29T19:52:43.461Z,55.77
2018-06-29T19:55:12.761Z,53.92
2018-06-29T19:57:42.516Z,54.39
2018-06-29T20:00:11.859Z,55.80
2018-06-29T20:02:47.213Z,55.31
2018-06-29T20:05:16.198Z,55.41
2018-06-29T20:07:44.873Z,57.55
2018-06-29T20:10:13.450Z,57.81
2018-06-29T20:12:44.362Z,58.71
2018-06-29T20:15:13.260Z,58.99
2018-06-29T20:17:42.590Z,60.68
2018-06-29T20:20:13.140Z,59.57
2018-06-29T20:22:43.194Z,60.70
2018-06-29T20:25:13.265Z,60.98
2018-06-29T20:27:47.540Z,61.55
2018-06-29T20:30:16.288Z,60.29
2018-06-29T20:32:44.824Z,59.60
2018-06-29T20:35:13.381Z,59.17
2018-06-29T20:37:41.901Z,58.58
2018-06-29T20:40:11.541Z,60.43
2018-06-29T20:42:40.053Z,59.02
2018-06-29T20:45:08.806Z,59.95
2018-06-29T20:47:37.354Z,60.23
2018-06-29T20:50:06.945Z,61.63
2018-06-29T20:52:35.808Z,61.07
2018-06-29T20:55:04.413Z,61.83
2018-06-29T20:57:32.977Z,61.77
2018-06-29T21:00:01.539Z,61.51
2018-06-29T21:02:30.065Z,61.82
2018-06-29T21:04:58.622Z,61.46
2018-06-29T21:07:27.179Z,62.31
2018-06-29T21:09:55.745Z,61.41
2018-06-29T21:12:24.386Z,61.98
2018-06-29T21:14:52.944Z,63.50
2018-06-29T21:17:21.472Z,64.12
2018-06-29T21:19:50.021Z,63.56
2018-06-29T21:22:19.103Z,63.77
2018-06-29T21:24:47.648Z,62.34
2018-06-29T21:27:20.434Z,63.32
2018-06-29T21:29:53.256Z,63.93
2018-06-29T21:32:21.959Z,64.16
2018-06-29T21:34:53.506Z,64.12
2018-06-29T21:37:24.006Z,63.94
2018-06-29T21:39:58.102Z,64.88
2018-06-29T21:42:29.165Z,65.27
2018-06-29T21:44:59.796Z,64.80
2018-06-29T21:47:29.799Z,66.78
2018-06-29T21:50:00.840Z,66.92
2018-06-29T21:52:29.380Z,66.58
2018-06-29T21:54:57.967Z,66.35
2018-06-29T21:57:26.504Z,67.00
2018-06-29T21:59:55.049Z,66.67
2018-06-29T22:02:29.228Z,66.41
2018-06-29T22:04:59.191Z,66.96
2018-06-29T22:07:28.789Z,67.86
2018-06-29T22:10:01.209Z,67.73
2018-06-29T22:12:30.834Z,68.59
2018-06-29T22:15:04.204Z,68.12
2018-06-29T22:17:35.264Z,68.09
2018-06-29T22:20:07.842Z,68.18
2018-06-29T22:22:37.640Z,67.63
2018-06-29T22:25:11.424Z,70.77
2018-06-29T22:27:42.056Z,69.69
2018-06-29T22:30:11.255Z,71.54
2018-06-29T22:32:42.452Z,71.12
2018-06-29T22:35:13.261Z,70.65
2018-06-29T22:37:44.536Z,69.55
2018-06-29T22:40:14.997Z,70.16
2018-06-29T22:42:53.564Z,70.41
2018-06-29T22:45:25.870Z,70.48
2018-06-29T22:47:58.769Z,70.46
2018-06-29T22:50:30.683Z,70.02
2018-06-29T22:53:05.144Z,71.12
2018-06-29T22:55:35.114Z,71.46
2018-06-29T22:58:07.281Z,71.67
2018-06-29T23:00:38.796Z,73.11
2018-06-29T23:03:14.701Z,72.07
2018-06-29T23:05:44.949Z,72.34
2018-06-29T23:08:17.307Z,71.70
2018-06-29T23:10:46.006Z,71.89
2018-06-29T23:13:17.624Z,71.69
2018-06-29T23:15:46.309Z,73.62
2018-06-29T23:18:18.895Z,74.04
2018-06-29T23:20:49.596Z,74.50
2018-06-29T23:23:20.089Z,74.38
2018-06-29T23:25:50.045Z,74.52
2018-06-29T23:28:20.371Z,75.49
2018-06-29T23:30:49.065Z,74.00
2018-06-29T23:33:17.582Z,74.93
2018-06-29T23:35:46.105Z,76.22
2018-06-29T23:38:15.958Z,77.18
2018-06-29T23:40:44.593Z,75.02
2018-06-29T23:43:13.212Z,76.04
2018-06-29T23:45:41.831Z,76.59
2018-06-29T23:48:10.389Z,78.62
2018-06-29T23:50:41.829Z,77.51
2018-06-29T23:53:13.428Z,78.08
2018-06-29T23:55:41.957Z,77.78
2018-06-29T23:58:10.509Z,77.56
